New Portland, Maine
Current Conditions -  °F | °C
As of 8:55 PM on Monday 20 Oct 2014 (Local Time) from KWVL Reporting Station
Broken Clouds Broken Clouds  
Wind Chill: 41°   Ceiling: 11000
Heat Index: 41°   Visibility: 10mi
Dew Point: 27°   Wind: 0mph
Humidity: 57%   Direction: NA
Pressure: 29.94"   Gusts: NA
Location:  44.88°N, 70.1°W
Report Text: KWVL 210055Z 00000KT 10SM BKN110 05/M03 A2994 RMK AO1
Loading
Personal Weather Stations






























Interactive Weather Map
Tropical Storm Tracking
New forecast layout! Learn more

10-Day Weather Forecast

Advertisements
Track Severe Weather on mobile